Kezdőlap
METAR-TAF:

METAR-TAF

Repülőterek :

Yap, Mikronézia

földrajzi szélesség: 09-29N, földrajzi hosszúság: 138-05E, magasság: 28 m

Jelenlegi meteorológiai megfigyelések

A jelentés 18 perccel ezelõtt készült, 22:52 UTC
Szélcsend
Hőmérséklet 29°C
Páratartalom 79%
Légköri nyomás 1011 hPa
Látótávolság: 19.3 km
Kevés felhő 30000 lábon

METAR: PTYA 242252Z 00000KT 12SM FEW300 29/25 A2986 RMK SLP112 T02920251

Idő: 09:10 (23:10 UTC)

Előrejelzés

A jelentés 5 órával és 20 perccel ezelõtt készült, 17:50 UTC
Az előrejelzés 24-én 18 óra UTC és 25-én 18 óra UTC között érvényes
Különbözõ irányokból fújó szél 5 kt
Látótávolság: 10 km
Kevés felhő 2000 lábon
Szórványos felhőzet 8000 lábon

TAF: PTYA 241750Z 2418/2518 VRB05KT P6SM FEW020 SCT080

Meteorológiai megfigyelések és előrejelzések több, mint 4000 repülőtéren (METAR és TAF jelentéseket).

A térképen piros és sárga pontok jelzik az elérhető meteorológiai állomásokat.

Mozgassa az egeret a pont fölött, hogy megjelenjen az állomás neve.

Azután kattintson az időjárási megfigyelések és előrejelzések megtekintéséhez.

A térkép megváltoztatása: kattintson a fekete keresztel jelölt zöld gombra ráközelítéshez, a vonallal jelölt zöld gombra távolításhoz, vagy a zöld nyilakra a szomszédos térképek eléréséhez.


METAR-TAF: